Terminal Aerodrome Forecast
Issued by NWS Tampa Bay Area, FL

Home | Current Version | Previous Version | Text Only | Print | Product List | Glossary On
Versions: 1 2 3 4 5 6 7 8 9 10 11 12 13 14 15 16 17 18 19 20 21 22 23 24 25 26 27 28
032
FTUS42 KTBW 232213 AAC
TAFTPA
TAF AMD
KTPA 232213Z 2322/2424 23011KT P6SM VCSH BKN020 OVC050
     FM232300 28008KT P6SM VCSH BKN020 OVC060
     FM240200 02006KT P6SM VCSH BKN015 OVC040
     FM240500 02006KT P6SM SCT005 BKN010
     FM241500 03007KT P6SM SCT015 BKN025
     FM241900 36007KT P6SM SCT025 BKN040=

USA.gov is the U.S. government's official web portal to all federal, state and local government web resources and services.